sensor_id;sensor_type;location;lat;lon;timestamp;pressure;altitude;pressure_sealevel;temperature;humidity
13080;BME280;6606;49.154;9.280;2023-08-20T00:00:47;99891.03;;;22.90;100.00
13080;BME280;6606;49.154;9.280;2023-08-20T00:03:29;99891.56;;;22.93;100.00
13080;BME280;6606;49.154;9.280;2023-08-20T00:06:11;99892.41;;;22.94;100.00
13080;BME280;6606;49.154;9.280;2023-08-20T00:08:53;99894.44;;;22.92;100.00
13080;BME280;6606;49.154;9.280;2023-08-20T00:11:36;99891.03;;;22.90;100.00
13080;BME280;6606;49.154;9.280;2023-08-20T00:14:18;99892.13;;;22.97;100.00
13080;BME280;6606;49.154;9.280;2023-08-20T00:17:01;99896.84;;;22.95;100.00
13080;BME280;6606;49.154;9.280;2023-08-20T00:19:44;99896.47;;;22.90;100.00
13080;BME280;6606;49.154;9.280;2023-08-20T00:22:26;99895.06;;;22.86;100.00
13080;BME280;6606;49.154;9.280;2023-08-20T00:25:09;99900.66;;;22.84;100.00
13080;BME280;6606;49.154;9.280;2023-08-20T00:27:51;99904.00;;;22.78;100.00
13080;BME280;6606;49.154;9.280;2023-08-20T00:30:33;99899.75;;;22.75;100.00
13080;BME280;6606;49.154;9.280;2023-08-20T00:33:17;99901.88;;;22.64;100.00
13080;BME280;6606;49.154;9.280;2023-08-20T00:35:58;99906.69;;;22.52;100.00
13080;BME280;6606;49.154;9.280;2023-08-20T00:38:40;99900.59;;;22.50;100.00
13080;BME280;6606;49.154;9.280;2023-08-20T00:41:22;99901.03;;;22.45;100.00
13080;BME280;6606;49.154;9.280;2023-08-20T00:44:04;99914.31;;;22.56;100.00
13080;BME280;6606;49.154;9.280;2023-08-20T00:46:47;99907.69;;;22.51;100.00
13080;BME280;6606;49.154;9.280;2023-08-20T00:49:31;99913.34;;;22.57;100.00
13080;BME280;6606;49.154;9.280;2023-08-20T00:52:14;99913.16;;;22.59;100.00
13080;BME280;6606;49.154;9.280;2023-08-20T00:54:56;99915.03;;;22.58;100.00
13080;BME280;6606;49.154;9.280;2023-08-20T00:57:39;99918.75;;;22.57;100.00
13080;BME280;6606;49.154;9.280;2023-08-20T01:00:23;99912.78;;;22.54;100.00
13080;BME280;6606;49.154;9.280;2023-08-20T01:03:05;99914.81;;;22.52;100.00
13080;BME280;6606;49.154;9.280;2023-08-20T01:05:53;99910.94;;;22.54;100.00
13080;BME280;6606;49.154;9.280;2023-08-20T01:08:47;99914.50;;;22.55;100.00
13080;BME280;6606;49.154;9.280;2023-08-20T01:11:37;99905.34;;;22.56;100.00
13080;BME280;6606;49.154;9.280;2023-08-20T01:14:24;99906.84;;;22.50;100.00
13080;BME280;6606;49.154;9.280;2023-08-20T01:17:06;99908.47;;;22.43;100.00
13080;BME280;6606;49.154;9.280;2023-08-20T01:19:48;99915.56;;;22.26;100.00
13080;BME280;6606;49.154;9.280;2023-08-20T01:22:49;99912.22;;;22.32;100.00
13080;BME280;6606;49.154;9.280;2023-08-20T01:25:45;99914.53;;;22.27;100.00
13080;BME280;6606;49.154;9.280;2023-08-20T01:28:31;99913.88;;;22.25;100.00
13080;BME280;6606;49.154;9.280;2023-08-20T01:31:15;99912.53;;;22.29;100.00
13080;BME280;6606;49.154;9.280;2023-08-20T01:33:59;99922.75;;;22.35;100.00
13080;BME280;6606;49.154;9.280;2023-08-20T01:36:42;99913.25;;;22.31;100.00
13080;BME280;6606;49.154;9.280;2023-08-20T01:39:25;99922.28;;;22.22;100.00
13080;BME280;6606;49.154;9.280;2023-08-20T01:42:07;99925.59;;;22.16;100.00
13080;BME280;6606;49.154;9.280;2023-08-20T01:44:50;99933.72;;;22.16;100.00
13080;BME280;6606;49.154;9.280;2023-08-20T01:47:32;99929.66;;;22.12;100.00
13080;BME280;6606;49.154;9.280;2023-08-20T01:50:15;99934.34;;;22.10;100.00
13080;BME280;6606;49.154;9.280;2023-08-20T01:52:56;99923.44;;;22.02;100.00
13080;BME280;6606;49.154;9.280;2023-08-20T01:55:38;99930.91;;;21.90;100.00
13080;BME280;6606;49.154;9.280;2023-08-20T01:58:20;99938.97;;;21.72;100.00
13080;BME280;6606;49.154;9.280;2023-08-20T02:01:03;99941.00;;;21.70;100.00
13080;BME280;6606;49.154;9.280;2023-08-20T02:03:45;99932.47;;;21.65;100.00
13080;BME280;6606;49.154;9.280;2023-08-20T02:06:27;99930.25;;;21.50;100.00
13080;BME280;6606;49.154;9.280;2023-08-20T02:09:09;99930.53;;;21.47;100.00
13080;BME280;6606;49.154;9.280;2023-08-20T02:11:50;99933.69;;;21.43;100.00
13080;BME280;6606;49.154;9.280;2023-08-20T02:14:32;99934.47;;;21.35;100.00
13080;BME280;6606;49.154;9.280;2023-08-20T02:17:16;99931.88;;;21.34;100.00
13080;BME280;6606;49.154;9.280;2023-08-20T02:19:58;99935.13;;;21.37;100.00
13080;BME280;6606;49.154;9.280;2023-08-20T02:22:39;99934.03;;;21.30;100.00
13080;BME280;6606;49.154;9.280;2023-08-20T02:25:23;99930.34;;;21.21;100.00
13080;BME280;6606;49.154;9.280;2023-08-20T02:28:06;99927.00;;;21.09;100.00
13080;BME280;6606;49.154;9.280;2023-08-20T02:30:48;99917.88;;;21.11;100.00
13080;BME280;6606;49.154;9.280;2023-08-20T02:33:31;99917.19;;;21.08;100.00
13080;BME280;6606;49.154;9.280;2023-08-20T02:36:13;99918.47;;;21.04;100.00
13080;BME280;6606;49.154;9.280;2023-08-20T02:38:55;99911.09;;;21.06;100.00
13080;BME280;6606;49.154;9.280;2023-08-20T02:41:36;99908.53;;;21.05;100.00
13080;BME280;6606;49.154;9.280;2023-08-20T02:44:18;99917.22;;;20.99;100.00
13080;BME280;6606;49.154;9.280;2023-08-20T02:47:01;99925.47;;;20.97;100.00
13080;BME280;6606;49.154;9.280;2023-08-20T02:49:44;99915.97;;;20.93;100.00
13080;BME280;6606;49.154;9.280;2023-08-20T02:52:26;99915.66;;;20.96;100.00
13080;BME280;6606;49.154;9.280;2023-08-20T02:55:08;99905.16;;;20.93;100.00
13080;BME280;6606;49.154;9.280;2023-08-20T02:57:50;99896.34;;;20.91;100.00
13080;BME280;6606;49.154;9.280;2023-08-20T03:04:34;99905.56;;;20.79;100.00
13080;BME280;6606;49.154;9.280;2023-08-20T03:07:17;99900.88;;;20.81;100.00
13080;BME280;6606;49.154;9.280;2023-08-20T03:09:59;99900.75;;;20.73;100.00
13080;BME280;6606;49.154;9.280;2023-08-20T03:12:40;99905.03;;;20.65;100.00
13080;BME280;6606;49.154;9.280;2023-08-20T03:15:22;99904.06;;;20.67;100.00
13080;BME280;6606;49.154;9.280;2023-08-20T03:18:05;99907.31;;;20.70;100.00
13080;BME280;6606;49.154;9.280;2023-08-20T03:20:47;99915.41;;;20.70;100.00
13080;BME280;6606;49.154;9.280;2023-08-20T03:23:30;99917.38;;;20.68;100.00
13080;BME280;6606;49.154;9.280;2023-08-20T03:26:11;99922.22;;;20.64;100.00
13080;BME280;6606;49.154;9.280;2023-08-20T03:28:53;99925.66;;;20.57;100.00
13080;BME280;6606;49.154;9.280;2023-08-20T03:31:35;99922.66;;;20.50;100.00
13080;BME280;6606;49.154;9.280;2023-08-20T03:34:17;99920.81;;;20.31;100.00
13080;BME280;6606;49.154;9.280;2023-08-20T03:36:59;99923.38;;;20.33;100.00
13080;BME280;6606;49.154;9.280;2023-08-20T03:39:42;99925.81;;;20.36;100.00
13080;BME280;6606;49.154;9.280;2023-08-20T03:42:24;99930.06;;;20.38;100.00
13080;BME280;6606;49.154;9.280;2023-08-20T03:45:06;99927.06;;;20.41;100.00
13080;BME280;6606;49.154;9.280;2023-08-20T03:47:48;99928.78;;;20.33;100.00
13080;BME280;6606;49.154;9.280;2023-08-20T03:50:31;99932.47;;;20.32;100.00
13080;BME280;6606;49.154;9.280;2023-08-20T03:53:13;99936.28;;;20.29;100.00
13080;BME280;6606;49.154;9.280;2023-08-20T03:55:56;99945.38;;;20.18;100.00
13080;BME280;6606;49.154;9.280;2023-08-20T03:58:38;99938.00;;;20.20;100.00
13080;BME280;6606;49.154;9.280;2023-08-20T04:01:20;99938.44;;;20.26;100.00
13080;BME280;6606;49.154;9.280;2023-08-20T04:04:03;99941.00;;;20.27;100.00
13080;BME280;6606;49.154;9.280;2023-08-20T04:06:45;99945.81;;;20.24;100.00
13080;BME280;6606;49.154;9.280;2023-08-20T04:09:26;99946.38;;;20.17;100.00
13080;BME280;6606;49.154;9.280;2023-08-20T04:12:09;99942.00;;;20.16;100.00
13080;BME280;6606;49.154;9.280;2023-08-20T04:14:51;99943.81;;;20.16;100.00
13080;BME280;6606;49.154;9.280;2023-08-20T04:17:33;99943.25;;;20.12;100.00
13080;BME280;6606;49.154;9.280;2023-08-20T04:20:15;99940.44;;;20.14;100.00
13080;BME280;6606;49.154;9.280;2023-08-20T04:22:57;99946.50;;;20.16;100.00
13080;BME280;6606;49.154;9.280;2023-08-20T04:25:39;99944.41;;;20.19;100.00
13080;BME280;6606;49.154;9.280;2023-08-20T04:28:23;99942.69;;;20.18;100.00
13080;BME280;6606;49.154;9.280;2023-08-20T04:31:05;99936.84;;;20.13;100.00
13080;BME280;6606;49.154;9.280;2023-08-20T04:34:03;99943.25;;;20.12;100.00
13080;BME280;6606;49.154;9.280;2023-08-20T04:36:59;99944.53;;;20.08;100.00
13080;BME280;6606;49.154;9.280;2023-08-20T04:39:40;99950.94;;;20.17;100.00
13080;BME280;6606;49.154;9.280;2023-08-20T04:42:22;99948.66;;;20.22;100.00
13080;BME280;6606;49.154;9.280;2023-08-20T04:45:08;99946.97;;;20.31;100.00
13080;BME280;6606;49.154;9.280;2023-08-20T04:47:51;99953.91;;;20.33;100.00
13080;BME280;6606;49.154;9.280;2023-08-20T04:50:33;99941.84;;;20.37;100.00
13080;BME280;6606;49.154;9.280;2023-08-20T04:53:15;99952.38;;;20.40;100.00
13080;BME280;6606;49.154;9.280;2023-08-20T04:55:58;99951.78;;;20.47;100.00
13080;BME280;6606;49.154;9.280;2023-08-20T04:58:40;99950.22;;;20.54;100.00
13080;BME280;6606;49.154;9.280;2023-08-20T05:01:25;99964.00;;;20.60;100.00
13080;BME280;6606;49.154;9.280;2023-08-20T05:04:06;99957.16;;;20.66;100.00
13080;BME280;6606;49.154;9.280;2023-08-20T05:06:48;99964.13;;;20.69;100.00
13080;BME280;6606;49.154;9.280;2023-08-20T05:09:31;99962.97;;;20.81;100.00
13080;BME280;6606;49.154;9.280;2023-08-20T05:12:13;99967.13;;;20.85;100.00
13080;BME280;6606;49.154;9.280;2023-08-20T05:14:54;99972.22;;;20.88;100.00
13080;BME280;6606;49.154;9.280;2023-08-20T05:17:38;99978.34;;;20.90;100.00
13080;BME280;6606;49.154;9.280;2023-08-20T05:20:21;99980.47;;;20.96;100.00
13080;BME280;6606;49.154;9.280;2023-08-20T05:23:03;99979.63;;;20.96;100.00
13080;BME280;6606;49.154;9.280;2023-08-20T05:25:46;99978.50;;;20.98;100.00
13080;BME280;6606;49.154;9.280;2023-08-20T05:28:28;99963.69;;;21.02;100.00
13080;BME280;6606;49.154;9.280;2023-08-20T05:31:10;99964.81;;;21.09;100.00
13080;BME280;6606;49.154;9.280;2023-08-20T05:33:53;99958.97;;;21.14;100.00
13080;BME280;6606;49.154;9.280;2023-08-20T05:36:35;99954.13;;;21.18;100.00
13080;BME280;6606;49.154;9.280;2023-08-20T05:39:17;99948.84;;;21.26;100.00
13080;BME280;6606;49.154;9.280;2023-08-20T05:41:59;99956.09;;;21.63;100.00
13080;BME280;6606;49.154;9.280;2023-08-20T05:44:41;99969.44;;;22.02;100.00
13080;BME280;6606;49.154;9.280;2023-08-20T05:47:26;99972.47;;;22.34;100.00
13080;BME280;6606;49.154;9.280;2023-08-20T05:50:10;99983.44;;;22.33;100.00
13080;BME280;6606;49.154;9.280;2023-08-20T05:52:52;100000.06;;;22.20;100.00
13080;BME280;6606;49.154;9.280;2023-08-20T05:55:35;100009.88;;;22.21;100.00
13080;BME280;6606;49.154;9.280;2023-08-20T05:58:17;100014.09;;;22.33;100.00
13080;BME280;6606;49.154;9.280;2023-08-20T06:00:58;100008.38;;;22.36;100.00
13080;BME280;6606;49.154;9.280;2023-08-20T06:03:40;99998.97;;;22.76;100.00
13080;BME280;6606;49.154;9.280;2023-08-20T06:06:23;100005.41;;;23.19;100.00
13080;BME280;6606;49.154;9.280;2023-08-20T06:09:05;100016.34;;;23.36;100.00
13080;BME280;6606;49.154;9.280;2023-08-20T06:11:47;100021.44;;;23.39;100.00
13080;BME280;6606;49.154;9.280;2023-08-20T06:14:28;100008.50;;;23.51;100.00
13080;BME280;6606;49.154;9.280;2023-08-20T06:17:10;100009.56;;;23.58;100.00
13080;BME280;6606;49.154;9.280;2023-08-20T06:19:52;100015.31;;;23.89;100.00
13080;BME280;6606;49.154;9.280;2023-08-20T06:22:35;100016.63;;;23.85;100.00
13080;BME280;6606;49.154;9.280;2023-08-20T06:25:17;100026.53;;;23.94;100.00
13080;BME280;6606;49.154;9.280;2023-08-20T06:27:58;100023.31;;;23.99;100.00
13080;BME280;6606;49.154;9.280;2023-08-20T06:30:40;100031.31;;;24.00;100.00
13080;BME280;6606;49.154;9.280;2023-08-20T06:33:28;100021.47;;;24.07;100.00
13080;BME280;6606;49.154;9.280;2023-08-20T06:36:10;100025.97;;;24.33;100.00
13080;BME280;6606;49.154;9.280;2023-08-20T06:38:53;100027.25;;;24.63;100.00
13080;BME280;6606;49.154;9.280;2023-08-20T06:41:35;100035.59;;;25.02;100.00
13080;BME280;6606;49.154;9.280;2023-08-20T06:44:16;100037.13;;;24.97;100.00
13080;BME280;6606;49.154;9.280;2023-08-20T06:46:58;100026.44;;;25.20;100.00
13080;BME280;6606;49.154;9.280;2023-08-20T06:49:40;100027.59;;;25.50;100.00
13080;BME280;6606;49.154;9.280;2023-08-20T06:52:22;100037.81;;;25.48;100.00
13080;BME280;6606;49.154;9.280;2023-08-20T06:55:05;100035.25;;;25.47;100.00
13080;BME280;6606;49.154;9.280;2023-08-20T06:57:47;100032.38;;;25.32;100.00
13080;BME280;6606;49.154;9.280;2023-08-20T07:00:29;100026.94;;;25.32;100.00
13080;BME280;6606;49.154;9.280;2023-08-20T07:03:10;100026.06;;;25.48;100.00
13080;BME280;6606;49.154;9.280;2023-08-20T07:05:52;100036.50;;;25.83;100.00
13080;BME280;6606;49.154;9.280;2023-08-20T07:08:34;100034.00;;;26.21;100.00
13080;BME280;6606;49.154;9.280;2023-08-20T07:11:17;100042.81;;;26.63;100.00
13080;BME280;6606;49.154;9.280;2023-08-20T07:13:59;100035.66;;;27.08;100.00
13080;BME280;6606;49.154;9.280;2023-08-20T07:16:40;100036.56;;;27.38;100.00
13080;BME280;6606;49.154;9.280;2023-08-20T07:19:22;100034.84;;;27.22;100.00
13080;BME280;6606;49.154;9.280;2023-08-20T07:22:04;100036.69;;;29.41;100.00
13080;BME280;6606;49.154;9.280;2023-08-20T07:24:46;100042.94;;;30.39;100.00
13080;BME280;6606;49.154;9.280;2023-08-20T07:27:29;100051.94;;;30.75;100.00
13080;BME280;6606;49.154;9.280;2023-08-20T07:30:11;100059.56;;;30.86;100.00
13080;BME280;6606;49.154;9.280;2023-08-20T07:32:53;100061.16;;;32.13;100.00
13080;BME280;6606;49.154;9.280;2023-08-20T07:35:34;100064.25;;;32.75;100.00
13080;BME280;6606;49.154;9.280;2023-08-20T07:38:17;100055.03;;;33.26;100.00
13080;BME280;6606;49.154;9.280;2023-08-20T07:40:58;100056.53;;;32.07;100.00
13080;BME280;6606;49.154;9.280;2023-08-20T07:43:42;100056.97;;;30.64;100.00
13080;BME280;6606;49.154;9.280;2023-08-20T07:46:23;100066.06;;;30.65;100.00
13080;BME280;6606;49.154;9.280;2023-08-20T07:49:05;100058.94;;;29.88;100.00
13080;BME280;6606;49.154;9.280;2023-08-20T07:51:47;100057.41;;;29.29;100.00
13080;BME280;6606;49.154;9.280;2023-08-20T07:54:32;100055.88;;;28.55;100.00
13080;BME280;6606;49.154;9.280;2023-08-20T07:57:14;100056.84;;;28.47;100.00
13080;BME280;6606;49.154;9.280;2023-08-20T07:59:57;100053.72;;;28.50;100.00
13080;BME280;6606;49.154;9.280;2023-08-20T08:02:39;100064.41;;;30.29;100.00
13080;BME280;6606;49.154;9.280;2023-08-20T08:05:20;100070.88;;;32.16;100.00
13080;BME280;6606;49.154;9.280;2023-08-20T08:08:03;100064.22;;;31.05;100.00
13080;BME280;6606;49.154;9.280;2023-08-20T08:10:45;100069.25;;;29.57;100.00
13080;BME280;6606;49.154;9.280;2023-08-20T08:13:27;100056.34;;;29.02;100.00
13080;BME280;6606;49.154;9.280;2023-08-20T08:16:10;100071.44;;;28.25;100.00
13080;BME280;6606;49.154;9.280;2023-08-20T08:18:51;100064.69;;;29.15;100.00
13080;BME280;6606;49.154;9.280;2023-08-20T08:21:33;100065.38;;;30.08;100.00
13080;BME280;6606;49.154;9.280;2023-08-20T08:24:15;100068.44;;;31.61;100.00
13080;BME280;6606;49.154;9.280;2023-08-20T08:26:57;100069.84;;;33.25;100.00
13080;BME280;6606;49.154;9.280;2023-08-20T08:29:38;100067.31;;;33.74;100.00
13080;BME280;6606;49.154;9.280;2023-08-20T08:32:22;100062.72;;;32.48;100.00
13080;BME280;6606;49.154;9.280;2023-08-20T08:35:04;100055.66;;;30.54;100.00
13080;BME280;6606;49.154;9.280;2023-08-20T08:37:46;100062.31;;;30.24;100.00
13080;BME280;6606;49.154;9.280;2023-08-20T08:40:29;100061.75;;;30.49;100.00
13080;BME280;6606;49.154;9.280;2023-08-20T08:43:11;100057.72;;;30.38;100.00
13080;BME280;6606;49.154;9.280;2023-08-20T08:45:56;100050.38;;;30.04;100.00
13080;BME280;6606;49.154;9.280;2023-08-20T08:48:40;100049.13;;;29.44;100.00
13080;BME280;6606;49.154;9.280;2023-08-20T08:51:23;100062.84;;;29.72;100.00
13080;BME280;6606;49.154;9.280;2023-08-20T08:54:05;100057.75;;;30.03;100.00
13080;BME280;6606;49.154;9.280;2023-08-20T08:56:49;100062.69;;;30.21;100.00
13080;BME280;6606;49.154;9.280;2023-08-20T08:59:32;100060.47;;;30.45;100.00
13080;BME280;6606;49.154;9.280;2023-08-20T09:02:17;100059.41;;;29.98;100.00
13080;BME280;6606;49.154;9.280;2023-08-20T09:05:00;100054.03;;;30.79;100.00
13080;BME280;6606;49.154;9.280;2023-08-20T09:07:43;100060.22;;;31.15;100.00
13080;BME280;6606;49.154;9.280;2023-08-20T09:10:26;100056.41;;;31.55;100.00
13080;BME280;6606;49.154;9.280;2023-08-20T09:13:07;100064.19;;;31.92;100.00
13080;BME280;6606;49.154;9.280;2023-08-20T09:15:50;100058.25;;;31.95;100.00
13080;BME280;6606;49.154;9.280;2023-08-20T09:18:37;100062.13;;;31.47;100.00
13080;BME280;6606;49.154;9.280;2023-08-20T09:21:26;100067.47;;;32.27;100.00
13080;BME280;6606;49.154;9.280;2023-08-20T09:24:08;100066.75;;;31.07;100.00
13080;BME280;6606;49.154;9.280;2023-08-20T09:26:56;100058.84;;;32.04;100.00
13080;BME280;6606;49.154;9.280;2023-08-20T09:29:44;100060.53;;;32.11;100.00
13080;BME280;6606;49.154;9.280;2023-08-20T09:32:27;100055.97;;;32.44;100.00
13080;BME280;6606;49.154;9.280;2023-08-20T09:35:17;100063.25;;;32.18;100.00
13080;BME280;6606;49.154;9.280;2023-08-20T09:38:02;100050.69;;;31.84;100.00
13080;BME280;6606;49.154;9.280;2023-08-20T09:40:45;100050.66;;;31.90;100.00
13080;BME280;6606;49.154;9.280;2023-08-20T09:43:30;100056.66;;;31.21;100.00
13080;BME280;6606;49.154;9.280;2023-08-20T09:46:12;100057.06;;;31.31;100.00
13080;BME280;6606;49.154;9.280;2023-08-20T09:48:56;100053.47;;;31.44;100.00
13080;BME280;6606;49.154;9.280;2023-08-20T09:51:38;100047.75;;;31.79;100.00
13080;BME280;6606;49.154;9.280;2023-08-20T09:54:30;100050.69;;;31.77;100.00
13080;BME280;6606;49.154;9.280;2023-08-20T09:57:23;100043.09;;;31.72;100.00
13080;BME280;6606;49.154;9.280;2023-08-20T10:00:09;100050.16;;;32.07;100.00
13080;BME280;6606;49.154;9.280;2023-08-20T10:02:54;100050.41;;;31.98;100.00
13080;BME280;6606;49.154;9.280;2023-08-20T10:05:37;100054.28;;;30.91;100.00
13080;BME280;6606;49.154;9.280;2023-08-20T10:08:20;100049.81;;;30.77;100.00
13080;BME280;6606;49.154;9.280;2023-08-20T10:11:03;100043.09;;;30.99;100.00
13080;BME280;6606;49.154;9.280;2023-08-20T10:13:45;100053.63;;;30.82;100.00
13080;BME280;6606;49.154;9.280;2023-08-20T10:16:27;100043.13;;;31.39;100.00
13080;BME280;6606;49.154;9.280;2023-08-20T10:19:09;100049.41;;;31.06;100.00
13080;BME280;6606;49.154;9.280;2023-08-20T10:21:52;100052.16;;;31.06;100.00
13080;BME280;6606;49.154;9.280;2023-08-20T10:24:41;100050.91;;;31.02;100.00
13080;BME280;6606;49.154;9.280;2023-08-20T10:27:31;100044.97;;;30.79;100.00
13080;BME280;6606;49.154;9.280;2023-08-20T10:30:17;100054.09;;;30.99;100.00
13080;BME280;6606;49.154;9.280;2023-08-20T10:33:01;100052.34;;;30.85;100.00
13080;BME280;6606;49.154;9.280;2023-08-20T10:35:47;100054.09;;;31.13;100.00
13080;BME280;6606;49.154;9.280;2023-08-20T10:38:35;100054.50;;;31.16;100.00
13080;BME280;6606;49.154;9.280;2023-08-20T10:41:24;100057.06;;;31.58;100.00
13080;BME280;6606;49.154;9.280;2023-08-20T10:44:07;100053.63;;;31.82;100.00
13080;BME280;6606;49.154;9.280;2023-08-20T10:46:50;100041.34;;;31.98;100.00
13080;BME280;6606;49.154;9.280;2023-08-20T10:49:32;100041.03;;;31.28;100.00
13080;BME280;6606;49.154;9.280;2023-08-20T10:52:13;100047.78;;;31.39;100.00
13080;BME280;6606;49.154;9.280;2023-08-20T10:54:56;100030.63;;;31.63;100.00
13080;BME280;6606;49.154;9.280;2023-08-20T10:57:38;100038.19;;;31.88;100.00
13080;BME280;6606;49.154;9.280;2023-08-20T11:00:21;100041.19;;;31.86;100.00
13080;BME280;6606;49.154;9.280;2023-08-20T11:03:03;100038.63;;;31.91;100.00
13080;BME280;6606;49.154;9.280;2023-08-20T11:05:48;100035.91;;;31.78;100.00
13080;BME280;6606;49.154;9.280;2023-08-20T11:08:32;100030.09;;;32.06;100.00
13080;BME280;6606;49.154;9.280;2023-08-20T11:11:14;100030.03;;;32.19;100.00
13080;BME280;6606;49.154;9.280;2023-08-20T11:13:55;100031.03;;;32.38;100.00
13080;BME280;6606;49.154;9.280;2023-08-20T11:16:39;100019.34;;;32.05;100.00
13080;BME280;6606;49.154;9.280;2023-08-20T11:19:22;100020.47;;;32.35;100.00
13080;BME280;6606;49.154;9.280;2023-08-20T11:22:04;100017.03;;;32.47;100.00
13080;BME280;6606;49.154;9.280;2023-08-20T11:24:46;100014.13;;;32.35;100.00
13080;BME280;6606;49.154;9.280;2023-08-20T11:27:28;100023.75;;;32.57;100.00
13080;BME280;6606;49.154;9.280;2023-08-20T11:30:11;100016.94;;;32.92;100.00
13080;BME280;6606;49.154;9.280;2023-08-20T11:32:55;100021.81;;;32.26;100.00
13080;BME280;6606;49.154;9.280;2023-08-20T11:35:36;100024.03;;;32.42;100.00
13080;BME280;6606;49.154;9.280;2023-08-20T11:38:20;100018.31;;;31.92;100.00
13080;BME280;6606;49.154;9.280;2023-08-20T11:41:03;100018.47;;;32.49;100.00
13080;BME280;6606;49.154;9.280;2023-08-20T11:43:45;100011.22;;;32.61;100.00
13080;BME280;6606;49.154;9.280;2023-08-20T11:46:27;100014.53;;;32.70;93.53
13080;BME280;6606;49.154;9.280;2023-08-20T11:49:10;100012.97;;;32.88;89.43
13080;BME280;6606;49.154;9.280;2023-08-20T11:51:52;100006.56;;;32.94;93.72
13080;BME280;6606;49.154;9.280;2023-08-20T11:54:36;100004.91;;;32.93;96.95
13080;BME280;6606;49.154;9.280;2023-08-20T11:57:19;100003.53;;;33.02;96.66
13080;BME280;6606;49.154;9.280;2023-08-20T12:00:01;100002.69;;;33.26;91.84
13080;BME280;6606;49.154;9.280;2023-08-20T12:02:55;100007.59;;;33.68;99.50
13080;BME280;6606;49.154;9.280;2023-08-20T12:05:41;100010.88;;;33.40;91.80
13080;BME280;6606;49.154;9.280;2023-08-20T12:08:22;100008.63;;;33.23;93.64
13080;BME280;6606;49.154;9.280;2023-08-20T12:11:04;99996.03;;;33.16;91.00
13080;BME280;6606;49.154;9.280;2023-08-20T12:13:47;99998.06;;;33.27;85.70
13080;BME280;6606;49.154;9.280;2023-08-20T12:16:29;99986.53;;;33.55;83.05
13080;BME280;6606;49.154;9.280;2023-08-20T12:19:11;99996.19;;;33.64;79.86
13080;BME280;6606;49.154;9.280;2023-08-20T12:21:55;99997.41;;;33.50;86.39
13080;BME280;6606;49.154;9.280;2023-08-20T12:24:37;99993.56;;;33.51;73.39
13080;BME280;6606;49.154;9.280;2023-08-20T12:27:18;99994.50;;;33.20;78.14
13080;BME280;6606;49.154;9.280;2023-08-20T12:30:00;99989.44;;;33.17;79.17
13080;BME280;6606;49.154;9.280;2023-08-20T12:32:43;99976.19;;;33.32;76.72
13080;BME280;6606;49.154;9.280;2023-08-20T12:35:25;99985.00;;;33.41;74.45
13080;BME280;6606;49.154;9.280;2023-08-20T12:38:08;99983.63;;;33.68;61.98
13080;BME280;6606;49.154;9.280;2023-08-20T12:40:50;99986.38;;;33.68;61.39
13080;BME280;6606;49.154;9.280;2023-08-20T12:43:31;99980.50;;;34.02;57.86
13080;BME280;6606;49.154;9.280;2023-08-20T12:46:13;99980.78;;;33.82;68.36
13080;BME280;6606;49.154;9.280;2023-08-20T12:48:55;99978.81;;;34.01;57.51
13080;BME280;6606;49.154;9.280;2023-08-20T12:51:37;99973.06;;;34.02;53.64
13080;BME280;6606;49.154;9.280;2023-08-20T12:54:20;99958.56;;;33.95;57.27
13080;BME280;6606;49.154;9.280;2023-08-20T12:57:02;99967.25;;;33.73;69.37
13080;BME280;6606;49.154;9.280;2023-08-20T12:59:43;99969.66;;;33.88;67.91
13080;BME280;6606;49.154;9.280;2023-08-20T13:02:26;99961.50;;;33.75;76.31
13080;BME280;6606;49.154;9.280;2023-08-20T13:05:09;99960.59;;;33.44;70.81
13080;BME280;6606;49.154;9.280;2023-08-20T13:07:52;99950.75;;;33.37;73.84
13080;BME280;6606;49.154;9.280;2023-08-20T13:10:36;99946.13;;;33.67;78.40
13080;BME280;6606;49.154;9.280;2023-08-20T13:13:20;99951.19;;;33.89;78.26
13080;BME280;6606;49.154;9.280;2023-08-20T13:16:03;99950.50;;;33.75;76.76
13080;BME280;6606;49.154;9.280;2023-08-20T13:18:45;99944.16;;;33.93;76.66
13080;BME280;6606;49.154;9.280;2023-08-20T13:21:27;99949.28;;;34.20;73.41
13080;BME280;6606;49.154;9.280;2023-08-20T13:24:08;99948.06;;;34.15;73.42
13080;BME280;6606;49.154;9.280;2023-08-20T13:26:52;99944.31;;;33.43;74.57
13080;BME280;6606;49.154;9.280;2023-08-20T13:29:34;99934.31;;;33.97;76.47
13080;BME280;6606;49.154;9.280;2023-08-20T13:32:16;99937.31;;;34.26;77.87
13080;BME280;6606;49.154;9.280;2023-08-20T13:34:57;99934.41;;;34.21;76.33
13080;BME280;6606;49.154;9.280;2023-08-20T13:37:39;99936.88;;;34.29;75.24
13080;BME280;6606;49.154;9.280;2023-08-20T13:40:21;99944.13;;;34.42;67.46
13080;BME280;6606;49.154;9.280;2023-08-20T13:43:04;99938.47;;;34.06;70.14
13080;BME280;6606;49.154;9.280;2023-08-20T13:45:46;99936.03;;;33.98;66.72
13080;BME280;6606;49.154;9.280;2023-08-20T13:48:28;99935.69;;;34.06;67.52
13080;BME280;6606;49.154;9.280;2023-08-20T13:51:10;99933.50;;;34.27;67.54
13080;BME280;6606;49.154;9.280;2023-08-20T13:53:51;99927.72;;;34.17;70.30
13080;BME280;6606;49.154;9.280;2023-08-20T13:56:34;99927.81;;;34.40;72.81
13080;BME280;6606;49.154;9.280;2023-08-20T13:59:17;99923.53;;;34.68;66.58
13080;BME280;6606;49.154;9.280;2023-08-20T14:01:59;99918.75;;;34.75;67.00
13080;BME280;6606;49.154;9.280;2023-08-20T14:04:41;99922.44;;;34.57;66.37
13080;BME280;6606;49.154;9.280;2023-08-20T14:07:22;99920.38;;;34.52;61.55
13080;BME280;6606;49.154;9.280;2023-08-20T14:10:06;99927.00;;;34.51;64.21
13080;BME280;6606;49.154;9.280;2023-08-20T14:12:47;99916.09;;;34.56;64.75
13080;BME280;6606;49.154;9.280;2023-08-20T14:15:31;99923.19;;;34.76;64.76
13080;BME280;6606;49.154;9.280;2023-08-20T14:18:12;99915.19;;;34.86;65.75
13080;BME280;6606;49.154;9.280;2023-08-20T14:20:54;99914.16;;;34.69;63.58
13080;BME280;6606;49.154;9.280;2023-08-20T14:23:36;99914.59;;;34.96;60.11